Time;durP1;ratioP1;P1;durP2;ratioP2;P2;SDS_P1;SDS_P2;PMS_P1;PMS_P2;Temp;Humidity;BMP_temperature;BMP_pressure;BME280_temperature;BME280_humidity;BME280_pressure;Samples;Min_cycle;Max_cycle;Signal;HPM_P1;HPM_P2
2023/01/02 00:01:18;;;;;;;23.75;9.48;;;;;;;10.09;100.00;100825.94;5082505;28;20426;-85
2023/01/02 00:03:43;;;;;;;25.40;9.38;;;;;;;10.10;100.00;100815.38;5083280;28;20036;-73
2023/01/02 00:06:09;;;;;;;24.02;9.70;;;;;;;10.11;100.00;100819.78;5083437;28;20028;-73
2023/01/02 00:08:34;;;;;;;23.42;9.70;;;;;;;10.14;100.00;100828.63;5081659;28;20029;-71
2023/01/02 00:10:59;;;;;;;22.00;9.02;;;;;;;10.12;100.00;100815.41;5084865;28;20020;-72
2023/01/02 00:13:25;;;;;;;24.55;9.57;;;;;;;10.16;100.00;100824.22;5081096;28;20037;-71
2023/01/02 00:15:50;;;;;;;23.48;9.63;;;;;;;10.10;100.00;100822.44;5083784;28;20032;-72
2023/01/02 00:18:15;;;;;;;22.90;9.70;;;;;;;10.05;100.00;100814.47;5082551;28;20035;-71
2023/01/02 00:20:41;;;;;;;24.35;10.02;;;;;;;10.08;100.00;100817.13;5082680;28;20375;-81
2023/01/02 00:23:06;;;;;;;24.42;10.07;;;;;;;10.03;100.00;100826.81;5083452;28;20024;-71
2023/01/02 00:25:33;;;;;;;26.35;10.30;;;;;;;10.05;100.00;100827.69;5081603;28;20028;-72
2023/01/02 00:27:59;;;;;;;22.75;9.55;;;;;;;10.06;100.00;100816.25;5084303;28;20074;-73
2023/01/02 00:30:25;;;;;;;25.30;10.52;;;;;;;10.00;100.00;100808.28;5081012;28;20460;-73
2023/01/02 00:32:50;;;;;;;25.85;10.57;;;;;;;10.00;100.00;100803.00;5083685;28;20042;-74
2023/01/02 00:35:16;;;;;;;25.55;11.02;;;;;;;9.97;100.00;100810.91;5082320;28;20035;-73
2023/01/02 00:37:41;;;;;;;25.00;11.55;;;;;;;9.97;100.00;100810.91;5082293;28;20078;-73
2023/01/02 00:40:12;;;;;;;25.98;11.13;;;;;;;9.95;100.00;100807.38;5083495;28;20039;-73
2023/01/02 00:42:38;;;;;;;26.10;11.00;;;;;;;9.99;100.00;100798.59;5081837;28;20037;-73
2023/01/02 00:45:03;;;;;;;25.73;11.05;;;;;;;10.00;100.00;100803.00;5084097;28;20111;-73
2023/01/02 00:47:29;;;;;;;25.85;10.75;;;;;;;10.03;100.00;100802.13;5080891;28;20033;-72
2023/01/02 00:49:54;;;;;;;25.88;10.90;;;;;;;10.01;100.00;100802.13;5083854;28;20034;-73
2023/01/02 00:52:19;;;;;;;25.70;10.50;;;;;;;10.04;100.00;100796.84;5081706;28;20462;-74
2023/01/02 00:54:45;;;;;;;23.20;9.90;;;;;;;10.09;100.00;100796.88;5082521;28;20544;-75
2023/01/02 00:57:10;;;;;;;24.05;9.75;;;;;;;10.08;100.00;100788.09;5082775;28;20462;-73
2023/01/02 00:59:35;;;;;;;24.33;9.75;;;;;;;10.10;100.00;100783.69;5081395;28;20524;-73
2023/01/02 01:02:00;;;;;;;22.65;9.10;;;;;;;10.12;100.00;100786.34;5084196;28;20463;-74
2023/01/02 01:04:26;;;;;;;24.27;8.90;;;;;;;10.19;100.00;100779.31;5080504;28;20459;-74
2023/01/02 01:06:51;;;;;;;22.75;8.55;;;;;;;10.24;100.00;100774.97;5083425;28;20375;-75
2023/01/02 01:09:17;;;;;;;23.08;8.38;;;;;;;10.29;100.00;100799.63;5081778;28;20394;-73
2023/01/02 01:11:42;;;;;;;25.17;8.82;;;;;;;10.33;100.00;100782.06;5081927;28;20065;-73
2023/01/02 01:14:07;;;;;;;24.70;7.68;;;;;;;10.36;100.00;100772.41;5083270;28;20032;-74
2023/01/02 01:16:33;;;;;;;22.52;8.18;;;;;;;10.40;100.00;100775.94;5080650;28;20033;-73
2023/01/02 01:18:58;;;;;;;23.45;8.20;;;;;;;10.43;100.00;100775.97;5066298;28;20028;-72
2023/01/02 01:21:23;;;;;;;23.58;8.10;;;;;;;10.44;100.00;100761.84;5080656;28;20429;-74
2023/01/02 01:23:53;;;;;;;23.35;7.70;;;;;;;10.44;100.00;100789.19;5082551;28;20049;-72
2023/01/02 01:26:20;;;;;;;20.52;7.30;;;;;;;10.50;100.00;100780.41;5081229;28;20107;-76
2023/01/02 01:28:46;;;;;;;23.13;7.72;;;;;;;10.50;100.00;100783.03;5085375;28;20071;-74
2023/01/02 01:31:15;;;;;;;23.33;7.88;;;;;;;10.49;100.00;100781.25;5086283;28;20399;-71
2023/01/02 01:33:41;;;;;;;21.38;7.55;;;;;;;10.56;100.00;100774.25;5085212;28;20020;-71
2023/01/02 01:36:10;;;;;;;21.58;7.80;;;;;;;10.53;100.00;100779.50;5087234;28;20031;-71
2023/01/02 01:38:36;;;;;;;22.00;7.38;;;;;;;10.53;100.00;100780.41;5084486;28;20103;-71
2023/01/02 01:41:02;;;;;;;23.45;7.72;;;;;;;10.58;100.00;100776.00;5087581;28;20103;-71
2023/01/02 01:43:57;;;;;;;23.63;7.68;;;;;;;10.57;100.00;100781.28;5080169;28;20033;-71
2023/01/02 01:46:25;;;;;;;22.30;7.32;;;;;;;10.56;100.00;100780.41;5084135;28;20040;-71
2023/01/02 01:49:18;;;;;;;22.88;8.20;;;;;;;10.53;100.00;100780.41;5084549;28;20027;-78
2023/01/02 01:51:51;;;;;;;23.02;7.68;;;;;;;10.54;100.00;100786.56;5083985;28;20070;-72
2023/01/02 01:54:23;;;;;;;21.15;7.97;;;;;;;10.53;100.00;100795.34;5066966;28;20031;-71
2023/01/02 01:56:54;;;;;;;21.13;7.55;;;;;;;10.55;100.00;100801.53;5085960;28;20617;-73
2023/01/02 01:59:20;;;;;;;23.88;7.82;;;;;;;10.54;100.00;100798.03;5084560;28;20020;-72
2023/01/02 02:01:48;;;;;;;22.38;7.38;;;;;;;10.61;100.00;100799.78;5085604;28;20025;-72
2023/01/02 02:04:15;;;;;;;22.92;7.40;;;;;;;10.61;100.00;100793.63;5085403;28;20501;-78
2023/01/02 02:06:40;;;;;;;23.25;8.30;;;;;;;10.55;100.00;100788.34;5084542;28;20036;-71
2023/01/02 02:09:16;;;;;;;21.88;7.82;;;;;;;10.56;100.00;100798.03;5086547;28;20526;-71
2023/01/02 02:11:41;;;;;;;23.60;7.97;;;;;;;10.59;100.00;100795.41;5084662;28;20107;-71
2023/01/02 02:14:07;;;;;;;23.38;8.20;;;;;;;10.57;100.00;100797.13;5086114;28;20070;-71
2023/01/02 02:16:45;;;;;;;21.45;7.68;;;;;;;10.58;100.00;100801.56;5083472;28;20025;-75
2023/01/02 02:19:29;;;;;;;24.73;8.02;;;;;;;10.59;100.00;100811.25;5085990;28;20433;-76
2023/01/02 02:21:54;;;;;;;23.98;7.90;;;;;;;10.56;100.00;100801.56;5086439;28;20386;-72
2023/01/02 02:24:41;;;;;;;23.25;7.68;;;;;;;10.58;100.00;100805.06;5084049;28;20044;-74
2023/01/02 02:27:31;;;;;;;23.30;8.02;;;;;;;10.55;100.00;100798.91;5080780;28;20067;-73
2023/01/02 02:30:09;;;;;;;23.00;8.40;;;;;;;10.54;100.00;100803.31;5083176;28;20034;-76
2023/01/02 02:32:34;;;;;;;25.08;8.05;;;;;;;10.60;100.00;100807.72;5080115;28;20051;-74
2023/01/02 02:35:27;;;;;;;23.58;7.93;;;;;;;10.61;100.00;100802.44;5086796;28;20465;-73
2023/01/02 02:38:02;;;;;;;23.23;7.55;;;;;;;10.60;100.00;100799.78;5085161;28;20532;-73
2023/01/02 02:40:46;;;;;;;22.85;7.40;;;;;;;10.62;100.00;100795.41;5078201;28;20095;-73
2023/01/02 02:43:21;;;;;;;24.77;7.75;;;;;;;10.64;100.00;100809.50;5082242;28;20029;-73
2023/01/02 02:46:17;;;;;;;23.65;7.72;;;;;;;10.66;100.00;100809.50;5084448;28;20575;-75
2023/01/02 02:49:06;;;;;;;23.13;7.80;;;;;;;10.60;100.00;100792.75;5082266;28;20105;-73
2023/01/02 02:51:44;;;;;;;22.95;7.47;;;;;;;10.61;100.00;100801.56;5079494;28;20502;-73
2023/01/02 02:54:15;;;;;;;21.30;7.10;;;;;;;10.65;100.00;100811.28;5081256;28;20027;-73
2023/01/02 02:56:42;;;;;;;23.25;7.80;;;;;;;10.59;100.00;100800.69;5084852;28;20032;-73
2023/01/02 02:59:10;;;;;;;22.73;7.97;;;;;;;10.60;100.00;100813.91;5083223;28;20069;-74
2023/01/02 03:01:35;;;;;;;22.92;7.90;;;;;;;10.55;100.00;100798.91;5085648;28;20493;-73
2023/01/02 03:04:01;;;;;;;23.15;8.10;;;;;;;10.59;100.00;100801.56;5082331;28;20040;-73
2023/01/02 03:06:43;;;;;;;23.45;8.05;;;;;;;10.58;100.00;100794.50;5085600;28;20115;-74
2023/01/02 03:09:11;;;;;;;22.07;7.50;;;;;;;10.60;100.00;100798.03;5080409;28;20024;-73
2023/01/02 03:11:46;;;;;;;24.58;8.05;;;;;;;10.59;100.00;100790.13;5085466;28;20031;-73
2023/01/02 03:14:23;;;;;;;21.98;8.02;;;;;;;10.59;100.00;100803.34;5083723;28;20478;-73
2023/01/02 03:16:56;;;;;;;22.30;8.18;;;;;;;10.60;100.00;100797.16;5083514;28;20028;-75
2023/01/02 03:19:31;;;;;;;22.75;7.50;;;;;;;10.60;100.00;100797.16;5085016;28;20441;-75
2023/01/02 03:22:05;;;;;;;23.02;7.50;;;;;;;10.61;100.00;100788.34;5082451;28;20028;-72
2023/01/02 03:24:33;;;;;;;22.08;7.68;;;;;;;10.57;100.00;100786.56;5078111;28;20087;-72
2023/01/02 03:27:03;;;;;;;23.25;7.78;;;;;;;10.58;100.00;100780.41;5077863;28;20043;-72
2023/01/02 03:29:43;;;;;;;25.20;7.90;;;;;;;10.51;100.00;100787.41;5078186;28;20546;-72
2023/01/02 03:32:15;;;;;;;21.00;8.25;;;;;;;10.55;100.00;100785.69;5079934;28;20062;-73
2023/01/02 03:34:44;;;;;;;22.77;7.95;;;;;;;10.56;100.00;100792.75;5084357;28;20378;-72
2023/01/02 03:37:16;;;;;;;21.52;7.80;;;;;;;10.59;100.00;100796.28;5082938;28;20029;-72
2023/01/02 03:39:48;;;;;;;22.90;7.47;;;;;;;10.58;100.00;100799.78;5084015;28;20020;-75
2023/01/02 03:42:19;;;;;;;21.65;7.90;;;;;;;10.57;100.00;100798.03;5083102;28;20032;-72
2023/01/02 03:45:02;;;;;;;22.23;7.60;;;;;;;10.57;100.00;100802.41;5083350;28;20024;-72
2023/01/02 03:47:52;;;;;;;21.08;7.15;;;;;;;10.59;100.00;100808.63;5085426;28;20032;-72
2023/01/02 03:50:22;;;;;;;21.90;7.63;;;;;;;10.60;100.00;100802.44;5081857;28;20160;-75
2023/01/02 03:52:47;;;;;;;20.63;7.65;;;;;;;10.58;100.00;100805.06;5083152;28;20061;-73
2023/01/02 03:55:14;;;;;;;20.27;7.00;;;;;;;10.60;100.00;100828.88;5064821;28;20479;-72
2023/01/02 03:57:59;;;;;;;23.10;7.82;;;;;;;10.62;100.00;100816.56;5083996;28;20032;-72
2023/01/02 04:00:34;;;;;;;21.10;7.00;;;;;;;10.63;100.00;100807.75;5084330;28;20119;-73
2023/01/02 04:03:12;;;;;;;21.45;7.20;;;;;;;10.65;100.00;100819.22;5077442;28;20016;-72
2023/01/02 04:06:09;;;;;;;22.95;7.53;;;;;;;10.58;100.00;100817.41;5079119;28;20021;-74
2023/01/02 04:08:46;;;;;;;20.52;6.80;;;;;;;10.64;100.00;100828.00;5059174;28;20062;-73
2023/01/02 04:11:16;;;;;;;20.50;6.95;;;;;;;10.66;100.00;100828.00;5083911;28;20020;-73
2023/01/02 04:13:47;;;;;;;20.98;7.20;;;;;;;10.59;100.00;100816.53;5082360;28;20020;-74
2023/01/02 04:16:18;;;;;;;20.27;7.45;;;;;;;10.56;100.00;100824.47;5083256;28;20020;-74
2023/01/02 04:18:51;;;;;;;21.23;7.45;;;;;;;10.56;100.00;100827.97;5082580;28;20111;-75
2023/01/02 04:21:22;;;;;;;21.27;7.55;;;;;;;10.55;100.00;100825.34;5082979;28;20047;-76
2023/01/02 04:23:57;;;;;;;22.52;7.72;;;;;;;10.52;100.00;100835.91;5082860;28;20049;-74
2023/01/02 04:26:28;;;;;;;20.98;7.70;;;;;;;10.51;100.00;100831.47;5081703;28;20035;-73
2023/01/02 04:28:53;;;;;;;22.92;7.30;;;;;;;10.49;100.00;100842.03;5083648;28;20036;-75
2023/01/02 04:31:35;;;;;;;22.67;7.90;;;;;;;10.52;100.00;100835.91;5082507;28;20028;-76
2023/01/02 04:34:02;;;;;;;22.90;7.70;;;;;;;10.48;100.00;100840.28;5077191;28;20519;-73
2023/01/02 04:36:27;;;;;;;21.50;7.55;;;;;;;10.48;100.00;100827.06;5084172;28;20024;-74
2023/01/02 04:38:53;;;;;;;22.42;7.85;;;;;;;10.49;100.00;100838.53;5081624;28;20032;-74
2023/01/02 04:41:26;;;;;;;22.85;7.90;;;;;;;10.50;100.00;100848.22;5083240;28;20064;-74
2023/01/02 04:43:53;;;;;;;22.73;7.65;;;;;;;10.48;100.00;100844.69;5081653;28;20134;-74
2023/01/02 04:46:19;;;;;;;21.58;7.28;;;;;;;10.51;100.00;100844.69;5082911;28;20418;-74
2023/01/02 04:48:45;;;;;;;23.10;7.65;;;;;;;10.43;100.00;100845.53;5082843;28;20174;-74
2023/01/02 04:51:10;;;;;;;24.17;8.43;;;;;;;10.41;100.00;100851.69;5081786;28;20475;-75
2023/01/02 04:53:35;;;;;;;21.67;7.72;;;;;;;10.44;100.00;100855.25;5084164;28;20059;-73
2023/01/02 04:56:00;;;;;;;21.60;7.43;;;;;;;10.48;100.00;100861.41;5080979;28;20028;-73
2023/01/02 04:58:26;;;;;;;21.23;7.35;;;;;;;10.46;100.00;100850.84;5083963;28;20040;-72
2023/01/02 05:00:52;;;;;;;21.23;7.53;;;;;;;10.43;100.00;100853.47;5081562;28;20107;-73
2023/01/02 05:03:18;;;;;;;22.70;7.55;;;;;;;10.45;100.00;100859.63;5084928;28;20467;-75
2023/01/02 05:05:43;;;;;;;21.48;7.38;;;;;;;10.46;100.00;100863.19;5086878;28;20115;-72
2023/01/02 05:08:08;;;;;;;20.63;7.53;;;;;;;10.42;100.00;100862.25;5085390;28;20033;-76
2023/01/02 05:10:34;;;;;;;21.98;7.80;;;;;;;10.41;100.00;100860.53;5088278;28;20109;-75
2023/01/02 05:12:59;;;;;;;20.85;7.30;;;;;;;10.43;100.00;100866.69;5080469;28;20051;-72
2023/01/02 05:15:25;;;;;;;21.02;7.25;;;;;;;10.42;100.00;100862.25;5087484;28;20043;-73
2023/01/02 05:17:50;;;;;;;21.08;7.40;;;;;;;10.42;100.00;100866.69;5085700;28;20024;-73
2023/01/02 05:20:16;;;;;;;19.33;6.45;;;;;;;10.44;100.00;100867.56;5085998;28;20107;-73
2023/01/02 05:25:30;;;;;;;20.65;6.55;;;;;;;10.50;100.00;100875.53;5087401;28;20174;-80
2023/01/02 05:27:55;;;;;;;20.38;6.70;;;;;;;10.46;100.00;100873.75;5084734;28;20459;-72
2023/01/02 05:30:21;;;;;;;21.27;6.20;;;;;;;10.48;100.00;100881.69;5086557;28;20157;-81
2023/01/02 05:32:47;;;;;;;21.50;7.03;;;;;;;10.39;100.00;100870.19;5086254;28;20032;-73
2023/01/02 05:35:13;;;;;;;20.75;6.45;;;;;;;10.38;100.00;100881.66;5085332;28;20361;-75
2023/01/02 05:37:38;;;;;;;22.27;6.30;;;;;;;10.43;100.00;100887.81;5086987;28;20066;-72
2023/01/02 05:40:04;;;;;;;20.60;6.07;;;;;;;10.49;100.00;100892.25;5084246;28;20024;-78
2023/01/02 05:42:29;;;;;;;22.23;6.65;;;;;;;10.47;100.00;100891.38;5061766;28;20594;-72
2023/01/02 05:44:55;;;;;;;21.80;6.50;;;;;;;10.48;100.00;100901.06;5086722;28;20024;-72
2023/01/02 05:47:20;;;;;;;19.58;6.20;;;;;;;10.50;100.00;100906.34;5085327;28;20036;-73
2023/01/02 05:49:45;;;;;;;18.10;5.88;;;;;;;10.53;100.00;100914.28;5085431;28;20029;-74
2023/01/02 05:52:11;;;;;;;20.83;6.07;;;;;;;10.56;100.00;100917.84;5086292;28;20060;-76
2023/01/02 05:54:36;;;;;;;18.98;5.93;;;;;;;10.52;100.00;100920.47;5084326;28;20029;-74
2023/01/02 05:57:01;;;;;;;18.10;5.82;;;;;;;10.53;100.00;100920.50;5087149;28;20032;-74
2023/01/02 05:59:27;;;;;;;20.20;5.93;;;;;;;10.55;100.00;100917.84;5084228;28;20033;-74
2023/01/02 06:01:52;;;;;;;18.73;5.50;;;;;;;10.52;100.00;100915.19;5086012;28;20044;-73
2023/01/02 06:04:18;;;;;;;18.52;5.35;;;;;;;10.62;100.00;100917.00;5085246;28;20413;-73
2023/01/02 06:06:43;;;;;;;19.23;5.70;;;;;;;10.56;100.00;100924.91;5066963;28;20035;-74
2023/01/02 06:09:12;;;;;;;17.50;5.63;;;;;;;10.55;100.00;100931.06;5086290;28;20032;-74
2023/01/02 06:11:38;;;;;;;20.90;6.10;;;;;;;10.50;100.00;100933.69;5083871;28;20419;-73
2023/01/02 06:14:03;;;;;;;19.92;5.90;;;;;;;10.48;100.00;100931.91;5086869;28;20024;-74
2023/01/02 06:16:28;;;;;;;18.98;5.80;;;;;;;10.47;100.00;100938.97;5083785;28;20376;-73
2023/01/02 06:18:54;;;;;;;20.70;6.20;;;;;;;10.43;100.00;100953.03;5086025;28;20471;-74
2023/01/02 06:21:21;;;;;;;20.83;6.50;;;;;;;10.40;100.00;100960.94;5084852;28;20024;-75
2023/01/02 06:23:47;;;;;;;20.83;6.18;;;;;;;10.37;100.00;100972.34;5084748;28;20039;-74
2023/01/02 06:26:15;;;;;;;21.15;6.50;;;;;;;10.34;100.00;100976.72;5085756;28;20028;-73
2023/01/02 06:28:41;;;;;;;18.38;6.80;;;;;;;10.17;100.00;100995.06;5084102;28;20033;-73
2023/01/02 06:31:09;;;;;;;16.25;4.97;;;;;;;9.82;100.00;101020.28;5086429;28;20363;-74
2023/01/02 06:33:35;;;;;;;14.65;4.30;;;;;;;9.64;100.00;101015.69;5083237;28;20390;-75
2023/01/02 06:36:04;;;;;;;9.13;3.33;;;;;;;9.32;100.00;101018.84;5086691;28;20024;-73
2023/01/02 06:38:29;;;;;;;8.80;2.90;;;;;;;9.15;100.00;101030.94;5083024;28;20032;-74
2023/01/02 06:40:56;;;;;;;9.55;2.97;;;;;;;9.02;100.00;101028.13;5085638;28;20035;-74
2023/01/02 06:43:22;;;;;;;7.40;2.75;;;;;;;8.93;100.00;101032.38;5084134;28;20028;-74
2023/01/02 06:45:48;;;;;;;4.55;2.50;;;;;;;8.72;100.00;101047.91;5084461;28;20580;-74
2023/01/02 06:48:14;;;;;;;5.07;2.30;;;;;;;8.69;100.00;101068.06;5067083;28;20032;-74
2023/01/02 06:50:40;;;;;;;6.18;2.40;;;;;;;8.64;100.00;101067.97;5081013;28;20037;-83
2023/01/02 06:53:05;;;;;;;7.05;2.50;;;;;;;8.59;100.00;101076.66;5080996;28;20141;-74
2023/01/02 06:55:31;;;;;;;4.90;2.63;;;;;;;8.55;100.00;101073.13;5085637;28;20123;-75
2023/01/02 06:57:56;;;;;;;5.60;2.60;;;;;;;8.58;100.00;101073.16;5056620;28;20028;-76
2023/01/02 07:00:21;;;;;;;7.47;2.65;;;;;;;8.49;100.00;101080.91;5083913;28;20055;-80
2023/01/02 07:02:47;;;;;;;7.53;2.70;;;;;;;8.42;100.00;101084.25;5080473;28;20082;-80
2023/01/02 07:05:12;;;;;;;7.93;2.90;;;;;;;8.35;100.00;101105.22;5081327;28;20526;-75
2023/01/02 07:07:38;;;;;;;7.57;2.47;;;;;;;8.44;100.00;101109.81;5084296;28;20036;-78
2023/01/02 07:10:04;;;;;;;6.78;2.60;;;;;;;8.27;100.00;101103.31;5074436;28;20053;-83
2023/01/02 07:12:29;;;;;;;10.93;3.10;;;;;;;8.26;100.00;101114.75;5080200;28;20024;-79
2023/01/02 07:14:55;;;;;;;10.38;2.90;;;;;;;8.28;100.00;101134.06;5075616;28;20047;-75
2023/01/02 07:17:20;;;;;;;13.05;3.35;;;;;;;8.22;100.00;101137.47;5077553;28;20039;-76
2023/01/02 07:19:45;;;;;;;12.73;3.40;;;;;;;8.24;100.00;101143.66;5082928;28;20036;-75
2023/01/02 07:22:11;;;;;;;13.95;4.00;;;;;;;8.14;100.00;101158.41;5083426;28;20032;-74
2023/01/02 07:24:36;;;;;;;15.50;4.20;;;;;;;8.11;100.00;101165.34;5062133;28;20106;-75
2023/01/02 07:27:01;;;;;;;16.75;4.50;;;;;;;8.10;100.00;101159.22;5083613;28;20119;-80
2023/01/02 07:29:27;;;;;;;16.95;4.60;;;;;;;8.07;100.00;101172.31;5056735;28;20025;-76
2023/01/02 07:31:52;;;;;;;17.20;5.00;;;;;;;8.08;100.00;101179.38;5079808;28;20075;-79
2023/01/02 07:34:17;;;;;;;17.88;5.07;;;;;;;8.03;100.00;101176.63;5076870;28;20043;-81
2023/01/02 07:36:43;;;;;;;17.70;4.95;;;;;;;8.06;100.00;101186.34;5075464;28;20028;-77
2023/01/02 07:39:08;;;;;;;18.65;5.65;;;;;;;8.03;100.00;101191.53;5079011;28;20155;-77
2023/01/02 07:41:34;;;;;;;18.60;5.55;;;;;;;8.04;100.00;101195.97;5076888;28;20032;-79
2023/01/02 07:44:00;;;;;;;19.55;5.75;;;;;;;8.05;100.00;101202.09;5075590;28;20036;-81
2023/01/02 07:46:25;;;;;;;18.95;5.90;;;;;;;8.07;100.00;101206.53;5072602;28;20483;-78
2023/01/02 07:48:51;;;;;;;20.30;6.05;;;;;;;8.09;100.00;101203.94;5068460;28;20028;-79
2023/01/02 07:51:17;;;;;;;20.52;6.63;;;;;;;8.07;100.00;101217.06;5055498;28;20029;-75
2023/01/02 07:53:43;;;;;;;20.38;6.68;;;;;;;8.04;100.00;101230.19;5060639;28;20107;-78
2023/01/02 07:56:08;;;;;;;21.08;6.95;;;;;;;8.03;100.00;101231.91;5079594;28;20116;-75
2023/01/02 07:58:34;;;;;;;21.95;7.90;;;;;;;8.02;100.00;101238.06;5079434;28;20020;-79
2023/01/02 08:01:05;;;;;;;23.40;8.55;;;;;;;8.03;100.00;101244.19;5082057;28;20070;-80
2023/01/02 08:03:31;;;;;;;23.73;8.88;;;;;;;8.03;100.00;101245.06;5078780;28;20025;-78
2023/01/02 08:06:09;;;;;;;25.38;10.13;;;;;;;7.99;100.00;101252.88;5080442;28;20039;-80
2023/01/02 08:08:35;;;;;;;24.40;10.70;;;;;;;7.97;100.00;101260.75;5062486;28;20115;-76
2023/01/02 08:11:08;;;;;;;26.27;10.75;;;;;;;7.94;100.00;101267.72;5073426;28;20143;-81
2023/01/02 08:13:34;;;;;;;25.15;11.60;;;;;;;7.91;100.00;101273.78;5058819;28;20032;-76
2023/01/02 08:16:13;;;;;;;25.73;12.43;;;;;;;7.87;100.00;101285.09;5073063;28;20052;-81
2023/01/02 08:18:38;;;;;;;27.33;12.57;;;;;;;7.87;100.00;101293.00;5037851;28;20029;-73
2023/01/02 08:21:05;;;;;;;27.23;13.63;;;;;;;7.81;100.00;101292.88;5073254;28;20553;-74
2023/01/02 08:23:31;;;;;;;25.27;12.70;;;;;;;7.75;100.00;101301.50;5060781;28;20056;-73
2023/01/02 08:26:00;;;;;;;27.63;12.73;;;;;;;7.73;100.00;101294.41;5073928;28;20032;-86
2023/01/02 08:28:26;;;;;;;25.80;13.40;;;;;;;7.71;100.00;101307.53;5081933;28;20484;-77
2023/01/02 08:30:52;;;;;;;25.73;12.95;;;;;;;7.68;100.00;101307.47;5075639;28;20035;-79
2023/01/02 08:33:17;;;;;;;25.23;13.30;;;;;;;7.64;100.00;101306.50;5077189;28;20506;-80
2023/01/02 08:35:42;;;;;;;26.58;13.48;;;;;;;7.63;100.00;101311.72;5077248;28;20023;-76
2023/01/02 08:38:08;;;;;;;25.83;13.18;;;;;;;7.59;100.00;101321.31;5061401;28;20031;-78
2023/01/02 08:40:33;;;;;;;25.30;12.98;;;;;;;7.57;100.00;101325.66;5065960;28;20385;-73
2023/01/02 08:42:58;;;;;;;24.98;12.85;;;;;;;7.55;100.00;101327.34;5078733;28;20055;-73
2023/01/02 08:45:24;;;;;;;25.10;12.80;;;;;;;7.53;100.00;101334.31;5054291;28;20025;-73
2023/01/02 08:47:49;;;;;;;25.38;12.88;;;;;;;7.51;100.00;101346.53;5074606;28;20044;-74
2023/01/02 08:50:14;;;;;;;27.02;12.95;;;;;;;7.49;100.00;101337.72;5082495;28;20035;-75
2023/01/02 08:52:40;;;;;;;25.23;12.70;;;;;;;7.47;100.00;101340.31;5064851;28;20040;-75
2023/01/02 08:55:05;;;;;;;26.48;13.30;;;;;;;7.50;100.00;101357.91;5085052;28;20111;-74
2023/01/02 08:57:31;;;;;;;25.52;12.85;;;;;;;7.49;100.00;101358.75;5062224;28;20036;-74
2023/01/02 08:59:57;;;;;;;25.45;12.65;;;;;;;7.46;100.00;101358.69;5071579;28;20458;-73
2023/01/02 09:02:22;;;;;;;24.92;11.98;;;;;;;7.45;100.00;101363.03;5081399;28;20097;-75
2023/01/02 09:04:47;;;;;;;25.65;12.20;;;;;;;7.46;100.00;101356.06;5073883;28;20470;-76
2023/01/02 09:07:13;;;;;;;27.02;12.88;;;;;;;7.42;100.00;101362.09;5091660;28;20064;-73
2023/01/02 09:09:38;;;;;;;25.00;12.80;;;;;;;7.39;100.00;101364.66;5083917;28;20077;-74
2023/01/02 09:12:04;;;;;;;24.75;12.52;;;;;;;7.38;100.00;101379.50;5079948;28;20116;-73
2023/01/02 09:14:29;;;;;;;25.20;12.02;;;;;;;7.37;100.00;101380.38;5081913;28;20101;-73
2023/01/02 09:16:56;;;;;;;24.13;12.30;;;;;;;7.42;100.00;101388.41;5082326;28;20503;-76
2023/01/02 09:19:23;;;;;;;24.30;11.70;;;;;;;7.40;100.00;101391.00;5082481;28;20467;-74
2023/01/02 09:21:49;;;;;;;24.25;11.30;;;;;;;7.43;100.00;101403.34;5081778;28;20111;-78
2023/01/02 09:24:14;;;;;;;22.40;10.18;;;;;;;7.40;100.00;101409.41;5083360;28;20566;-73
2023/01/02 09:26:43;;;;;;;22.30;10.13;;;;;;;7.38;100.00;101410.19;5070311;28;20070;-86
2023/01/02 09:29:10;;;;;;;23.20;10.70;;;;;;;7.37;100.00;101413.66;5067642;28;20039;-85
2023/01/02 09:31:35;;;;;;;22.95;10.07;;;;;;;7.38;100.00;101424.22;5069084;28;20017;-86
2023/01/02 09:34:01;;;;;;;23.15;9.55;;;;;;;7.38;100.00;101418.09;5080500;28;20024;-85
2023/01/02 09:36:27;;;;;;;21.90;9.35;;;;;;;7.41;100.00;101426.06;5078433;28;20037;-85
2023/01/02 09:38:54;;;;;;;21.05;9.63;;;;;;;7.39;100.00;101430.41;5062463;28;20474;-85
2023/01/02 09:41:41;;;;;;;23.20;9.70;;;;;;;7.39;100.00;101430.41;5075945;28;20020;-87
2023/01/02 09:44:22;;;;;;;23.05;10.05;;;;;;;7.46;100.00;101434.97;5074522;28;20031;-94
2023/01/02 09:46:49;;;;;;;23.25;9.82;;;;;;;7.53;100.00;101439.56;5069120;28;20031;-82
2023/01/02 09:49:19;;;;;;;22.65;9.95;;;;;;;7.50;100.00;101431.59;5081234;28;20025;-81
2023/01/02 09:51:45;;;;;;;21.58;9.25;;;;;;;7.52;100.00;101448.28;5062649;28;20103;-83
2023/01/02 09:54:32;;;;;;;21.35;8.88;;;;;;;7.50;100.00;101445.63;5084932;28;20162;-85
2023/01/02 09:57:26;;;;;;;21.08;8.10;;;;;;;7.51;100.00;101446.50;5086247;28;20470;-85
2023/01/02 10:00:17;;;;;;;21.75;9.07;;;;;;;7.45;100.00;101451.59;5082376;28;20024;-84
2023/01/02 10:02:54;;;;;;;22.88;8.77;;;;;;;7.45;100.00;101449.84;5080207;28;20074;-85
2023/01/02 10:05:45;;;;;;;22.30;8.57;;;;;;;7.46;100.00;101451.66;5078098;28;20028;-85
2023/01/02 10:08:28;;;;;;;21.50;8.45;;;;;;;7.46;100.00;101456.03;5078589;28;20119;-81
2023/01/02 10:11:20;;;;;;;22.52;8.85;;;;;;;7.55;100.00;101468.53;5074361;28;20047;-86
2023/01/02 10:14:00;;;;;;;21.77;8.88;;;;;;;7.47;100.00;101468.31;5084110;28;20112;-89
2023/01/02 10:16:31;;;;;;;20.85;8.00;;;;;;;7.47;100.00;101469.22;5081932;28;20052;-82
2023/01/02 10:19:01;;;;;;;20.88;7.88;;;;;;;7.52;100.00;101471.97;5076976;28;20029;-84
2023/01/02 10:21:34;;;;;;;19.60;7.50;;;;;;;7.55;100.00;101468.53;5084158;28;20027;-86
2023/01/02 10:24:49;;;;;;;20.27;8.00;;;;;;;7.57;100.00;101464.19;5088112;28;20044;-92
2023/01/02 10:27:19;;;;;;;19.98;7.75;;;;;;;7.57;100.00;101454.56;5081315;28;20094;-86
2023/01/02 10:29:51;;;;;;;19.55;7.13;;;;;;;7.60;100.00;101462.56;5081223;28;20040;-86
2023/01/02 10:32:19;;;;;;;18.90;7.63;;;;;;;7.64;100.00;101460.88;5080835;28;20047;-86
2023/01/02 10:35:08;;;;;;;20.10;8.07;;;;;;;7.66;100.00;101478.50;5083180;28;20091;-82
2023/01/02 10:37:34;;;;;;;19.95;8.15;;;;;;;7.65;100.00;101481.97;5076889;28;20024;-81
2023/01/02 10:40:06;;;;;;;20.88;8.98;;;;;;;7.66;100.00;101483.75;5085344;28;20258;-82
2023/01/02 10:42:32;;;;;;;21.63;9.40;;;;;;;7.68;100.00;101495.19;5074455;28;20020;-80
2023/01/02 10:44:59;;;;;;;21.77;9.52;;;;;;;7.71;100.00;101478.59;5065130;28;20043;-77
2023/01/02 10:47:38;;;;;;;21.77;9.63;;;;;;;7.71;100.00;101485.63;5063373;28;20390;-82
2023/01/02 10:50:06;;;;;;;21.77;9.93;;;;;;;7.78;100.00;101482.31;5076753;28;20090;-78
2023/01/02 10:52:39;;;;;;;23.13;9.85;;;;;;;7.76;100.00;101481.34;5060328;28;20071;-75
2023/01/02 10:55:04;;;;;;;23.45;10.55;;;;;;;7.75;100.00;101472.56;5058599;28;20020;-91
2023/01/02 10:57:43;;;;;;;22.58;9.68;;;;;;;7.84;100.00;101482.44;5064980;28;20402;-91
2023/01/02 11:00:17;;;;;;;23.40;10.68;;;;;;;7.88;100.00;101492.22;5092865;28;20024;-91
2023/01/02 11:02:49;;;;;;;22.90;10.40;;;;;;;7.93;100.00;101492.31;5074694;28;20054;-90
2023/01/02 11:05:21;;;;;;;23.30;11.45;;;;;;;7.98;100.00;101506.47;5080298;28;20028;-81
2023/01/02 11:07:48;;;;;;;23.45;11.32;;;;;;;8.00;100.00;101495.16;5075790;28;20032;-86
2023/01/02 11:10:25;;;;;;;23.45;10.80;;;;;;;8.11;100.00;101510.31;5082781;28;20016;-81
2023/01/02 11:12:51;;;;;;;23.73;11.60;;;;;;;8.19;100.00;101511.41;5080445;28;20030;-91
2023/01/02 11:15:24;;;;;;;23.45;11.50;;;;;;;8.25;100.00;101515.94;5078312;28;20555;-90
2023/01/02 11:17:50;;;;;;;24.00;12.30;;;;;;;8.24;100.00;101493.97;5083916;28;20028;-81
2023/01/02 11:20:24;;;;;;;23.38;11.80;;;;;;;8.19;100.00;101508.78;5064798;28;20035;-89
2023/01/02 11:22:52;;;;;;;23.42;11.98;;;;;;;8.09;100.00;101515.56;5084140;28;20140;-80
2023/01/02 11:25:22;;;;;;;24.13;12.57;;;;;;;8.10;100.00;101511.19;5077049;28;20037;-74